地図

経路データ

SID SEASON NUMBER BASIN SUBBASIN NAME ISO_TIME NATURE LAT LON WMO_WIND WMO_PRES WMO_AGENCY TRACK_TYPE DIST2LAND LANDFALL IFLAG USA_AGENCY USA_ATCF_ID USA_LAT USA_LON USA_RECORD USA_STATUS USA_WIND USA_PRES USA_SSHS USA_R34_NE USA_R34_SE USA_R34_SW USA_R34_NW USA_R50_NE USA_R50_SE USA_R50_SW USA_R50_NW USA_R64_NE USA_R64_SE USA_R64_SW USA_R64_NW USA_POCI USA_ROCI USA_RMW USA_EYE TOKYO_LAT TOKYO_LON TOKYO_GRADE TOKYO_WIND TOKYO_PRES TOKYO_R50_DIR TOKYO_R50_LONG TOKYO_R50_SHORT TOKYO_R30_DIR TOKYO_R30_LONG TOKYO_R30_SHORT TOKYO_LAND CMA_LAT CMA_LON CMA_CAT CMA_WIND CMA_PRES HKO_LAT HKO_LON HKO_CAT HKO_WIND HKO_PRES NEWDELHI_LAT NEWDELHI_LON NEWDELHI_GRADE NEWDELHI_WIND NEWDELHI_PRES NEWDELHI_CI NEWDELHI_DP NEWDELHI_POCI REUNION_LAT REUNION_LON REUNION_TYPE REUNION_WIND REUNION_PRES REUNION_TNUM REUNION_CI REUNION_RMW REUNION_R34_NE REUNION_R34_SE REUNION_R34_SW REUNION_R34_NW REUNION_R50_NE REUNION_R50_SE REUNION_R50_SW REUNION_R50_NW REUNION_R64_NE REUNION_R64_SE REUNION_R64_SW REUNION_R64_NW BOM_LAT BOM_LON BOM_TYPE BOM_WIND BOM_PRES BOM_TNUM BOM_CI BOM_RMW BOM_R34_NE BOM_R34_SE BOM_R34_SW BOM_R34_NW BOM_R50_NE BOM_R50_SE BOM_R50_SW BOM_R50_NW BOM_R64_NE BOM_R64_SE BOM_R64_SW BOM_R64_NW BOM_ROCI BOM_POCI BOM_EYE BOM_POS_METHOD BOM_PRES_METHOD NADI_LAT NADI_LON NADI_CAT NADI_WIND NADI_PRES WELLINGTON_LAT WELLINGTON_LON WELLINGTON_WIND WELLINGTON_PRES DS824_LAT DS824_LON DS824_STAGE DS824_WIND DS824_PRES TD9636_LAT TD9636_LON TD9636_STAGE TD9636_WIND TD9636_PRES TD9635_LAT TD9635_LON TD9635_WIND TD9635_PRES TD9635_ROCI NEUMANN_LAT NEUMANN_LON NEUMANN_CLASS NEUMANN_WIND NEUMANN_PRES MLC_LAT MLC_LON MLC_CLASS MLC_WIND MLC_PRES USA_GUST BOM_GUST BOM_GUST_PER REUNION_GUST REUNION_GUST_PER USA_SEAHGT USA_SEARAD_NE USA_SEARAD_SE USA_SEARAD_SW USA_SEARAD_NW STORM_SPEED STORM_DIR
1996001S08075 1996 1 SI MM BONITA 1995-12-31 18:00:00 TS -8.00000 75.0000 main 1675 1675 O___________O_ jtwc_sh SH061996 -8.00000 75.0000 15 -1 -8.00000 75.0000 TC 15 6 226
1996001S08075 1996 1 SI MM BONITA 1995-12-31 21:00:00 TS -8.21004 74.7776 main 1704 1704 P___________P_ SH061996 -8.21004 74.7776 15 -1 -8.21004 74.7776 TC 15 6 225
1996001S08075 1996 1 SI MM BONITA 1996-01-01 00:00:00 TS -8.40000 74.6000 main 1733 1733 O___________O_ jtwc_sh SH061996 -8.40000 74.6000 15 -1 -8.40000 74.6000 TC 15 5 219
1996001S08075 1996 1 SI MM BONITA 1996-01-01 03:00:00 TS -8.55747 74.4925 main 1758 1758 P___________P_ SH061996 -8.55747 74.4925 15 -1 -8.55747 74.4925 TC 15 4 213
1996001S08075 1996 1 SI MM BONITA 1996-01-01 06:00:00 TS -8.70000 74.4000 main 1772 1772 O___________O_ jtwc_sh SH061996 -8.70000 74.4000 15 -1 -8.70000 74.4000 TC 15 4 218
1996001S08075 1996 1 SI MM BONITA 1996-01-01 09:00:00 TS -8.85000 74.2575 main 1787 1797 P___________P_ SH061996 -8.85000 74.2575 15 -1 -8.85000 74.2575 TC 15 4 224
1996001S08075 1996 1 SI MM BONITA 1996-01-01 12:00:00 TS -9.00000 74.1000 main 1816 1816 O___________O_ jtwc_sh SH061996 -9.00000 74.1000 15 -1 -9.00000 74.1000 TC 15 4 224
1996001S08075 1996 1 SI MM BONITA 1996-01-01 15:00:00 TS -9.14997 73.9650 main 1830 1830 P___________P_ SH061996 -9.14997 73.9650 17 -1 -9.14997 73.9650 TC 17 4 224
1996001S08075 1996 1 SI MM BONITA 1996-01-01 18:00:00 TS -9.30000 73.8000 main 1859 1859 O___________O_ jtwc_sh SH061996 -9.30000 73.8000 20 -1 -9.30000 73.8000 TC 20 5 232
1996001S08075 1996 1 SI MM BONITA 1996-01-01 21:00:00 TS -9.45753 73.5575 main 1889 1889 P___________P_ SH061996 -9.45753 73.5575 20 -1 -9.45753 73.5575 TC 20 6 239
1996001S08075 1996 1 SI MM BONITA 1996-01-02 00:00:00 TS -9.60000 73.3000 main 1912 1912 O___________O_ jtwc_sh SH061996 -9.60000 73.3000 20 -1 -9.60000 73.3000 TC 20 5 242
1996001S08075 1996 1 SI MM BONITA 1996-01-02 03:00:00 TS -9.69246 73.0999 main 1931 1931 P___________P_ SH061996 -9.69246 73.0999 20 -1 -9.69246 73.0999 TC 20 4 243
1996001S08075 1996 1 SI MM BONITA 1996-01-02 06:00:00 TS -9.80000 72.9000 main 1951 1951 O___________O_ jtwc_sh SH061996 -9.80000 72.9000 20 -1 -9.80000 72.9000 TC 20 5 236
1996001S08075 1996 1 SI MM BONITA 1996-01-02 09:00:00 TS -9.99251 72.6500 main 1966 1926 P___________P_ SH061996 -9.99251 72.6500 20 -1 -9.99251 72.6500 TC 20 6 231
1996001S08075 1996 1 SI MM BONITA 1996-01-02 12:00:00 TS -10.2000 72.4000 main 1926 1902 O___________O_ jtwc_sh SH061996 -10.2000 72.4000 20 -1 -10.2000 72.4000 TC 20 6 231
1996001S08075 1996 1 SI MM BONITA 1996-01-02 15:00:00 TS -10.3575 72.1850 main 1895 1871 P___________P_ SH061996 -10.3575 72.1850 20 -1 -10.3575 72.1850 TC 20 5 233
1996001S08075 1996 1 SI MM BONITA 1996-01-02 18:00:00 TS -10.5000 72.0000 main 1871 1846 O___________O_ jtwc_sh SH061996 -10.5000 72.0000 20 -1 -10.5000 72.0000 TC 20 5 230
1996001S08075 1996 1 SI MM BONITA 1996-01-02 21:00:00 TS -10.6500 71.8350 main 1846 1824 P___________P_ SH061996 -10.6500 71.8350 20 -1 -10.6500 71.8350 TC 20 4 224
1996001S08075 1996 1 SI MM BONITA 1996-01-03 00:00:00 TS -10.8000 71.7000 main 1824 1809 O___________O_ jtwc_sh SH061996 -10.8000 71.7000 20 -1 -10.8000 71.7000 TC 20 4 218
1996001S08075 1996 1 SI MM BONITA 1996-01-03 03:00:00 TS -10.9500 71.5925 main 1809 1787 P___________P_ SH061996 -10.9500 71.5925 22 -1 -10.9500 71.5925 TC 22 4 213
1996001S08075 1996 1 SI MM BONITA 1996-01-03 06:00:00 TS -11.1000 71.5000 main 1787 1771 O___________O_ jtwc_sh SH061996 -11.1000 71.5000 25 -1 -11.1000 71.5000 TC 25 4 213
1996001S08075 1996 1 SI MM BONITA 1996-01-03 09:00:00 TS -11.2575 71.3925 main 1765 1749 P___________P_ SH061996 -11.2575 71.3925 25 -1 -11.2575 71.3925 TC 25 4 219
1996001S08075 1996 1 SI MM BONITA 1996-01-03 12:00:00 TS -11.4000 71.2556 25 1000 reunion main 1749 1734 O____O______O_ jtwc_sh SH061996 -11.4000 71.3000 25 -1 -11.4000 70.9000 2 25 1000 2.00000 2.00000 -11.4000 71.3000 TC 25 4 212
1996001S08075 1996 1 SI MM BONITA 1996-01-03 15:00:00 TS -11.5540 71.2045 main 1728 1721 P____P______P_ SH061996 -11.5075 71.2425 25 -1 -11.7400 71.0524 2 25 1001 -11.5075 71.2425 TC 25 3 190
1996001S08075 1996 1 SI MM BONITA 1996-01-03 18:00:00 TS -11.7091 71.2000 25 1002 reunion main 1721 1715 O____O______O_ jtwc_sh SH061996 -11.6000 71.2000 25 -1 -12.0000 71.2000 2 25 1002 2.00000 2.00000 -11.6000 71.2000 TC 25 3 175
1996001S08075 1996 1 SI MM BONITA 1996-01-03 21:00:00 TS -11.8383 71.2100 main 1715 1708 P____P______P_ SH061996 -11.6925 71.1500 25 -1 -12.1300 71.3300 2 25 1002 -11.6925 71.1500 TC 25 2 0
1996001S08075 1996 1 SI MM BONITA 1996-01-04 00:00:00 TS -11.9333 71.2000 25 1002 reunion main 1708 1696 O____O______O_ jtwc_sh SH061996 -11.8000 71.1000 25 -1 -12.2000 71.4000 2 25 1002 2.00000 2.00000 -11.8000 71.1000 TC 25 2 191
1996001S08075 1996 1 SI MM BONITA 1996-01-04 03:00:00 TS -12.0617 71.1625 main 1696 1681 P____P______P_ SH061996 -11.9425 71.0500 25 -1 -12.3000 71.3875 2 25 1002 -11.9425 71.0500 TC 25 3 199
1996001S08075 1996 1 SI MM BONITA 1996-01-04 06:00:00 TS -12.2000 71.1000 25 1002 reunion main 1681 1666 O____O______O_ jtwc_sh SH061996 -12.1000 71.0000 25 -1 -12.4000 71.3000 2 25 1002 1.50000 2.00000 -12.1000 71.0000 TC 25 3 207
1996001S08075 1996 1 SI MM BONITA 1996-01-04 09:00:00 TS -12.3333 71.0242 main 1666 1644 P____P______P_ SH061996 -12.2500 70.9500 25 -1 -12.5000 71.1725 2 25 1002 -12.2500 70.9500 TC 25 3 211
1996001S08075 1996 1 SI MM BONITA 1996-01-04 12:00:00 TS -12.4667 70.9333 25 1002 reunion main 1644 1629 O____O______O_ jtwc_sh SH061996 -12.4000 70.9000 25 -1 -12.6000 71.0000 2 25 1002 1.50000 2.00000 -12.4000 70.9000 TC 25 3 215
1996001S08075 1996 1 SI MM BONITA 1996-01-04 15:00:00 TS -12.5950 70.8383 main 1629 1614 P____P______P_ SH061996 -12.5425 70.8575 25 -1 -12.7000 70.8000 2 25 1001 -12.5425 70.8575 TC 25 3 216
1996001S08075 1996 1 SI MM BONITA 1996-01-04 18:00:00 TS -12.7333 70.7333 25 1000 reunion main 1614 1593 O____O______O_ jtwc_sh SH061996 -12.7000 70.8000 25 -1 -12.8000 70.6000 2 25 1000 2.00000 2.00000 -12.7000 70.8000 TC 25 4 214
1996001S08075 1996 1 SI MM BONITA 1996-01-04 21:00:00 TS -12.8900 70.6341 main 1593 1572 P____P______P_ SH061996 -12.8850 70.7225 25 -1 -12.8999 70.4575 2 27 998 -12.8850 70.7225 TC 25 4 214
1996001S08075 1996 1 SI MM BONITA 1996-01-05 00:00:00 TS -13.0667 70.5000 30 997 reunion main 1572 1541 O____O______O_ jtwc_sh SH061996 -13.1000 70.6000 25 -1 -13.0000 70.3000 2 30 997 2.50000 2.50000 -13.1000 70.6000 TC 25 5 220
1996001S08075 1996 1 SI MM BONITA 1996-01-05 03:00:00 TS -13.2667 70.3083 main 1541 1511 P____P______P_ SH061996 -13.3500 70.4300 27 -1 -13.1000 70.0650 2 30 997 -13.3500 70.4300 TC 27 6 227
1996001S08075 1996 1 SI MM BONITA 1996-01-05 06:00:00 TS -13.4667 70.0667 30 997 reunion main 1511 1478 O____O______O_ jtwc_sh SH061996 -13.6000 70.2000 30 -1 -13.2000 69.8000 2 30 997 2.50000 2.50000 -13.6000 70.2000 TC 30 6 233
1996001S08075 1996 1 SI MM BONITA 1996-01-05 09:00:00 TS -13.6333 69.8033 main 1478 1438 P____P______P_ SH061996 -13.8075 69.9224 30 -1 -13.2849 69.5649 2 30 996 -13.8075 69.9224 TC 30 6 239
1996001S08075 1996 1 SI MM BONITA 1996-01-05 12:00:00 TS -13.8000 69.5000 30 995 reunion main 1438 1399 O____O______O_ jtwc_sh SH061996 -14.0000 69.6000 30 -1 -13.4000 69.3000 2 30 995 2.50000 2.50000 -14.0000 69.6000 TC 30 7 239
1996001S08075 1996 1 SI MM BONITA 1996-01-05 15:00:00 TS -14.0049 69.1775 main 1399 1351 P____P______P_ SH061996 -14.2149 69.2725 30 -1 -13.5849 68.9875 2 32 993 -14.2149 69.2725 TC 30 8 240
1996001S08075 1996 1 SI MM BONITA 1996-01-05 18:00:00 TS -14.2000 68.8000 35 992 reunion main 1351 1308 O____O______O_ jtwc_sh SH061996 -14.4000 68.9000 30 -1 -13.8000 68.6000 3 35 992 3.00000 3.00000 -14.4000 68.9000 TC 30 9 246
1996001S08075 1996 1 SI MM BONITA 1996-01-05 21:00:00 TS -14.3533 68.3583 main 1302 1250 P____P______P_ SH061996 -14.5224 68.4799 30 -1 -14.0151 68.1151 3 35 991 -14.5224 68.4799 TC 30 9 254
1996001S08075 1996 1 SI MM BONITA 1996-01-06 00:00:00 TS -14.4667 67.8667 35 990 reunion main 1250 1205 O____O______O_ jtwc_sh SH061996 -14.6000 68.0000 30 -1 -14.2000 67.6000 3 35 990 3.00000 3.00000 -14.6000 68.0000 TC 30 10 259
1996001S08075 1996 1 SI MM BONITA 1996-01-06 03:00:00 TS -14.5407 67.3649 main 1205 1153 P____P______P_ SH061996 -14.6574 67.4724 32 -1 -14.3073 67.1498 3 37 990 -14.6574 67.4724 TC 32 10 262
1996001S08075 1996 1 SI MM BONITA 1996-01-06 06:00:00 TS -14.6000 66.8333 40 990 reunion main 1144 1094 O____O______O_ jtwc_sh SH061996 -14.7000 66.9000 35 0 -14.4000 66.7000 3 40 990 3.00000 3.00000 -14.7000 66.9000 TC 35 11 262
1996001S08075 1996 1 SI MM BONITA 1996-01-06 09:00:00 TS -14.6832 66.2817 main 1094 1035 P____P______P_ SH061996 -14.7498 66.3150 35 0 -14.5499 66.2150 3 42 987 -14.7498 66.3150 TC 35 11 261
1996001S08075 1996 1 SI MM BONITA 1996-01-06 12:00:00 TS -14.7667 65.7000 45 985 reunion main 1035 983 O____O______O_ jtwc_sh SH061996 -14.8000 65.7000 35 0 -14.7000 65.7000 3 45 985 3.50000 3.50000 -14.8000 65.7000 TC 35 12 263
1996001S08075 1996 1 SI MM BONITA 1996-01-06 15:00:00 TS -14.8233 65.0857 main 983 926 P____P______P_ SH061996 -14.8274 65.0498 35 0 -14.8149 65.1575 3 47 982 -14.8274 65.0498 TC 35 12 264
1996001S08075 1996 1 SI MM BONITA 1996-01-06 18:00:00 TS -14.9000 64.4667 50 980 reunion main 926 870 O____O______O_ jtwc_sh SH061996 -14.9000 64.4000 35 0 -14.9000 64.6000 3 50 980 4.00000 4.00000 -14.9000 64.4000 TC 35 12 260
1996001S08075 1996 1 SI MM BONITA 1996-01-06 21:00:00 TS -15.0249 63.8608 main 870 807 P____P______P_ SH061996 -15.0775 63.7627 40 0 -14.9198 64.0571 3 51 977 -15.0775 63.7627 TC 40 12 255
1996001S08075 1996 1 SI MM BONITA 1996-01-07 00:00:00 TS -15.2000 63.3000 52 975 reunion main 807 753 O____O______O_ jtwc_sh SH061996 -15.3000 63.2000 45 0 -15.0000 63.5000 3 52 975 4.00000 4.00000 -15.3000 63.2000 TC 45 11 249
1996001S08075 1996 1 SI MM BONITA 1996-01-07 03:00:00 TS -15.4131 62.8232 main 753 699 P____P______P_ SH061996 -15.4922 62.7848 50 0 -15.2550 62.9001 3 53 972 -15.4922 62.7848 TC 50 10 243
1996001S08075 1996 1 SI MM BONITA 1996-01-07 06:00:00 TS -15.6667 62.3667 55 970 reunion main 699 646 O____O______O_ jtwc_sh SH061996 -15.7000 62.4000 55 0 -15.6000 62.3000 3 55 970 4.00000 4.00000 -15.7000 62.4000 TC 55 11 240
1996001S08075 1996 1 SI MM BONITA 1996-01-07 09:00:00 TS -15.9650 61.8427 main 631 585 P____P______P_ SH061996 -15.9650 61.9077 57 0 -15.9650 61.7127 3 57 967 -15.9650 61.9077 TC 57 11 240
1996001S08075 1996 1 SI MM BONITA 1996-01-07 12:00:00 TS -16.2333 61.3333 60 965 reunion main 578 534 O____O______O_ jtwc_sh SH061996 -16.2000 61.4000 60 0 -16.3000 61.2000 3 60 965 4.50000 4.50000 -16.2000 61.4000 TC 60 10 245
1996001S08075 1996 1 SI MM BONITA 1996-01-07 15:00:00 TS -16.3764 60.9138 main 534 499 P____P______P_ SH061996 -16.3073 60.9497 67 1 -16.5146 60.8421 3 60 965 -16.3073 60.9497 TC 67 8 252
1996001S08075 1996 1 SI MM BONITA 1996-01-07 18:00:00 TS -16.5000 60.5000 60 965 reunion main 499 451 O____O______O_ jtwc_sh SH061996 -16.4000 60.5000 75 1 -16.7000 60.5000 3 60 965 4.50000 4.50000 -16.4000 60.5000 TC 75 9 250
1996001S08075 1996 1 SI MM BONITA 1996-01-07 21:00:00 TS -16.6942 60.0000 main 451 405 P____P______P_ SH061996 -16.5701 59.9850 82 1 -16.9425 60.0300 3 62 962 -16.5701 59.9850 TC 82 11 246
1996001S08075 1996 1 SI MM BONITA 1996-01-08 00:00:00 TS -16.9333 59.5000 65 960 reunion main 405 356 O____O______O_ jtwc_sh SH061996 -16.8000 59.5000 90 2 -17.2000 59.5000 4 65 960 5.00000 5.00000 -16.8000 59.5000 TC 90 10 239
1996001S08075 1996 1 SI MM BONITA 1996-01-08 03:00:00 TS -17.2215 59.0808 main 356 309 P____P______P_ SH061996 -17.0997 59.1499 95 2 -17.4650 58.9426 4 70 955 -17.0997 59.1499 TC 95 10 235
1996001S08075 1996 1 SI MM BONITA 1996-01-08 06:00:00 TS -17.5000 58.6667 75 950 reunion main 309 273 O____O______O_ jtwc_sh SH061996 -17.4000 58.8000 100 3 -17.7000 58.4000 4 75 950 5.00000 5.00000 -17.4000 58.8000 TC 100 10 240
1996001S08075 1996 1 SI MM BONITA 1996-01-08 09:00:00 TS -17.7032 58.2032 main 273 246 P____P______P_ SH061996 -17.6149 58.3373 107 3 -17.8798 57.9349 4 80 945 -17.6149 58.3373 TC 107 10 248
1996001S08075 1996 1 SI MM BONITA 1996-01-08 12:00:00 TS -17.8667 57.7000 85 940 reunion main 246 235 O____O______O_ jtwc_sh SH061996 -17.8000 57.8000 115 4 -18.0000 57.5000 4 85 940 5.50000 5.50000 -17.8000 57.8000 TC 115 11 252
1996001S08075 1996 1 SI MM BONITA 1996-01-08 15:00:00 TS -18.0267 57.1525 main 237 227 P____P______P_ SH061996 -18.0075 57.2075 115 4 -18.0649 57.0424 4 92 930 -18.0075 57.2075 TC 115 11 254
1996001S08075 1996 1 SI MM BONITA 1996-01-08 18:00:00 TS -18.1667 56.6000 100 920 reunion main 232 232 O____O______O_ jtwc_sh SH061996 -18.2000 56.6000 115 4 -18.1000 56.6000 4 100 920 6.50000 6.50000 -18.2000 56.6000 TC 115 11 255
1996001S08075 1996 1 SI MM BONITA 1996-01-08 21:00:00 TS -18.2933 56.0675 main 249 249 P____P______P_ SH061996 -18.3725 56.0050 117 4 -18.1349 56.1924 4 100 920 -18.3725 56.0050 TC 117 10 256
1996001S08075 1996 1 SI MM BONITA 1996-01-09 00:00:00 TS -18.4000 55.6000 100 920 reunion main 275 275 O____O______O_ jtwc_sh SH061996 -18.5000 55.5000 120 4 -18.2000 55.8000 4 100 920 6.00000 6.50000 -18.5000 55.5000 TC 120 8 256
1996001S08075 1996 1 SI MM BONITA 1996-01-09 03:00:00 TS -18.4931 55.2416 main 279 270 P____P______P_ SH061996 -18.5647 55.1623 125 4 -18.3499 55.4001 4 97 922 -18.5647 55.1623 TC 125 7 255
1996001S08075 1996 1 SI MM BONITA 1996-01-09 06:00:00 TS -18.5667 54.9333 95 925 reunion main 271 271 O____O______O_ jtwc_sh SH061996 -18.6000 54.9000 130 4 -18.5000 55.0000 4 95 925 5.50000 6.50000 -18.6000 54.9000 TC 130 6 257
1996001S08075 1996 1 SI MM BONITA 1996-01-09 09:00:00 TS -18.6340 54.6150 main 278 270 P____P______P_ SH061996 -18.6648 54.6226 132 4 -18.5724 54.5999 4 92 927 -18.6648 54.6226 TC 132 6 261
1996001S08075 1996 1 SI MM BONITA 1996-01-09 12:00:00 TS -18.6667 54.2667 90 930 reunion main 277 277 O____O______O_ jtwc_sh SH061996 -18.7000 54.3000 135 4 -18.6000 54.2000 4 90 930 5.50000 6.00000 -18.7000 54.3000 TC 135 7 269
1996001S08075 1996 1 SI MM BONITA 1996-01-09 15:00:00 TS -18.6484 53.8408 main 310 310 P____P______P_ SH061996 -18.6651 53.8649 135 4 -18.6150 53.7925 4 87 932 -18.6651 53.8649 TC 135 8 275
1996001S08075 1996 1 SI MM BONITA 1996-01-09 18:00:00 TS -18.6000 53.4000 85 935 reunion main 334 334 O____O______O_ jtwc_sh SH061996 -18.6000 53.4000 135 4 -18.6000 53.4000 4 85 935 5.50000 5.50000 -18.6000 53.4000 TC 135 8 277
1996001S08075 1996 1 SI MM BONITA 1996-01-09 21:00:00 TS -18.5549 52.9992 main 360 349 P____P______P_ SH061996 -18.5500 52.9775 135 4 -18.5649 53.0425 4 85 935 -18.5500 52.9775 TC 135 7 278
1996001S08075 1996 1 SI MM BONITA 1996-01-10 00:00:00 TS -18.5000 52.6333 85 935 reunion main 339 306 O____O______O_ jtwc_sh SH061996 -18.5000 52.6000 135 4 -18.5000 52.7000 4 85 935 5.00000 5.50000 -18.5000 52.6000 TC 135 7 280
1996001S08075 1996 1 SI MM BONITA 1996-01-10 03:00:00 TS -18.4432 52.3142 main 306 275 P____P______P_ SH061996 -18.4573 52.2926 132 4 -18.4149 52.3576 4 82 940 -18.4573 52.2926 TC 132 6 283
1996001S08075 1996 1 SI MM BONITA 1996-01-10 06:00:00 TS -18.3667 52.0000 80 945 reunion main 275 242 O____O______O_ jtwc_sh SH061996 -18.4000 52.0000 130 4 -18.3000 52.0000 4 80 945 5.00000 5.50000 -18.4000 52.0000 TC 130 7 286
1996001S08075 1996 1 SI MM BONITA 1996-01-10 09:00:00 TS -18.2600 51.6433 main 232 195 P____P______P_ SH061996 -18.3150 51.6575 127 4 -18.1499 51.6150 4 80 945 -18.3150 51.6575 TC 127 7 289
1996001S08075 1996 1 SI MM BONITA 1996-01-10 12:00:00 TS -18.1333 51.2667 80 945 reunion main 195 151 O____O______O_ jtwc_sh SH061996 -18.2000 51.3000 125 4 -18.0000 51.2000 4 80 945 5.00000 5.50000 -18.2000 51.3000 TC 125 7 290
1996001S08075 1996 1 SI MM BONITA 1996-01-10 15:00:00 TS -18.0072 50.9210 main 151 108 P____P______P_ SH061996 -18.0646 50.9952 120 4 -17.8923 50.7726 4 80 945 -18.0646 50.9952 TC 120 8 290
1996001S08075 1996 1 SI MM BONITA 1996-01-10 18:00:00 TS -17.8667 50.5000 80 945 reunion main 108 52 O____O______O_ jtwc_sh SH061996 -17.9000 50.6000 115 4 -17.8000 50.3000 4 80 945 5.50000 5.50000 -17.9000 50.6000 TC 115 10 288
1996001S08075 1996 1 SI MM BONITA 1996-01-10 21:00:00 TS -17.7025 49.9308 main 42 0 P____P______P_ SH061996 -17.7001 50.0024 112 3 -17.7073 49.7876 4 -17.7001 50.0024 TC 112 12 286
1996001S08075 1996 1 SI MM BONITA 1996-01-11 00:00:00 TS -17.5333 49.2667 reunion main 0 0 O____O______O_ jtwc_sh SH061996 -17.5000 49.3000 110 3 -17.6000 49.2000 8 9.90000 -17.5000 49.3000 TC 110 13 285
1996001S08075 1996 1 SI MM BONITA 1996-01-11 03:00:00 TS -17.3706 48.5917 main 0 0 P____P______P_ SH061996 -17.3348 48.6076 105 3 -17.4420 48.5598 8 -17.3348 48.6076 TC 105 14 283
1996001S08075 1996 1 SI MM BONITA 1996-01-11 06:00:00 TS -17.2333 47.8667 reunion main 0 0 O____O______O_ jtwc_sh SH061996 -17.2000 47.9000 100 3 -17.3000 47.8000 8 9.90000 -17.2000 47.9000 TC 100 15 279
1996001S08075 1996 1 SI MM BONITA 1996-01-11 09:00:00 TS -17.1349 47.0909 main 0 0 P____P______P_ SH061996 -17.0847 47.2076 87 2 -17.2354 46.8577 8 -17.0847 47.2076 TC 87 15 276
1996001S08075 1996 1 SI MM BONITA 1996-01-11 12:00:00 TS -17.0667 46.3000 reunion main 0 0 O____O______O_ jtwc_sh SH061996 -17.0000 46.5000 75 1 -17.2000 45.9000 8 9.90000 -17.0000 46.5000 TC 75 15 275
1996001S08075 1996 1 SI MM BONITA 1996-01-11 15:00:00 TS -17.0091 45.5226 main 0 0 P____P______P_ SH061996 -16.9425 45.7426 70 1 -17.1422 45.0825 8 -16.9425 45.7426 TC 70 14 274
1996001S08075 1996 1 SI MM BONITA 1996-01-11 18:00:00 TS -16.9667 44.8000 reunion main 0 0 O____O______O_ jtwc_sh SH061996 -16.9000 45.0000 65 1 -17.1000 44.4000 8 9.90000 -16.9000 45.0000 TC 65 13 274
1996001S08075 1996 1 SI MM BONITA 1996-01-11 21:00:00 TS -16.9155 44.1699 main 10 10 P____P______P_ SH061996 -16.8272 44.3273 65 1 -17.0921 43.8551 8 -16.8272 44.3273 TC 65 12 273
1996001S08075 1996 1 SI MM BONITA 1996-01-12 00:00:00 TS -16.9000 43.6000 35 990 reunion main 62 62 O____O______O_ jtwc_sh SH061996 -16.8000 43.7000 65 1 -17.1000 43.4000 3 35 990 3.00000 3.00000 -16.8000 43.7000 TC 65 11 268
1996001S08075 1996 1 SI MM BONITA 1996-01-12 03:00:00 TS -16.9465 43.0326 main 116 110 P____P______P_ SH061996 -16.8774 43.0777 55 0 -17.0849 42.9424 3 35 990 -16.8774 43.0777 TC 55 11 263
1996001S08075 1996 1 SI MM BONITA 1996-01-12 06:00:00 TS -17.0333 42.5000 35 990 reunion main 158 158 O____O______O_ jtwc_sh SH061996 -17.0000 42.5000 45 0 -17.1000 42.5000 3 35 990 3.00000 3.00000 -17.0000 42.5000 TC 45 10 260
1996001S08075 1996 1 SI MM BONITA 1996-01-12 09:00:00 TS -17.1257 41.9941 main 206 203 P____P______P_ SH061996 -17.0924 41.9699 50 0 -17.1924 42.0426 3 35 990 -17.0924 41.9699 TC 50 9 258
1996001S08075 1996 1 SI MM BONITA 1996-01-12 12:00:00 TS -17.2333 41.5333 35 990 reunion main 195 171 O____O______O_ jtwc_sh SH061996 -17.2000 41.5000 55 0 -17.3000 41.6000 3 35 990 2.50000 3.00000 -17.2000 41.5000 TC 55 9 254
1996001S08075 1996 1 SI MM BONITA 1996-01-12 15:00:00 TS -17.3573 41.1258 main 171 146 P____P______P_ SH061996 -17.3573 41.0925 55 0 -17.3574 41.1924 3 35 990 -17.3573 41.0925 TC 55 8 253
1996001S08075 1996 1 SI MM BONITA 1996-01-12 18:00:00 TS -17.4667 40.7333 35 990 reunion main 147 123 O____O______O_ jtwc_sh SH061996 -17.5000 40.7000 55 0 -17.4000 40.8000 3 35 990 3.00000 3.00000 -17.5000 40.7000 TC 55 8 257
1996001S08075 1996 1 SI MM BONITA 1996-01-12 21:00:00 TS -17.5341 40.3100 main 123 108 P____P______P_ SH061996 -17.5724 40.2574 55 0 -17.4573 40.4150 3 37 989 -17.5724 40.2574 TC 55 8 263
1996001S08075 1996 1 SI MM BONITA 1996-01-13 00:00:00 TS -17.5667 39.8667 40 988 reunion main 108 74 O____O______O_ jtwc_sh SH061996 -17.6000 39.8000 55 0 -17.5000 40.0000 3 40 988 3.00000 3.00000 -17.6000 39.8000 TC 55 9 267
1996001S08075 1996 1 SI MM BONITA 1996-01-13 03:00:00 TS -17.5742 39.3825 main 74 64 P____P______P_ SH061996 -17.6075 39.3274 60 0 -17.5076 39.4924 3 42 986 -17.6075 39.3274 TC 60 9 270
1996001S08075 1996 1 SI MM BONITA 1996-01-13 06:00:00 TS -17.5667 38.9333 45 985 reunion main 59 54 O____O______O_ jtwc_sh SH061996 -17.6000 38.9000 65 1 -17.5000 39.0000 3 45 985 3.50000 3.50000 -17.6000 38.9000 TC 65 7 271
1996001S08075 1996 1 SI MM BONITA 1996-01-13 09:00:00 TS -17.5564 38.6041 main 54 39 P____P______P_ SH061996 -17.5848 38.5924 70 1 -17.4998 38.6275 3 47 982 -17.5848 38.5924 TC 70 6 270
1996001S08075 1996 1 SI MM BONITA 1996-01-13 12:00:00 TS -17.5667 38.3000 50 980 reunion main 39 30 O____O______O_ jtwc_sh SH061996 -17.6000 38.3000 75 1 -17.5000 38.3000 3 50 980 4.00000 4.00000 -17.6000 38.3000 TC 75 6 265
1996001S08075 1996 1 SI MM BONITA 1996-01-13 15:00:00 TS -17.6158 37.9366 main 24 22 P____P______P_ SH061996 -17.6850 37.9151 75 1 -17.4772 37.9798 3 50 980 -17.6850 37.9151 TC 75 7 260
1996001S08075 1996 1 SI MM BONITA 1996-01-13 18:00:00 TS -17.7000 37.5333 50 980 reunion main 15 0 O____O______O_ jtwc_sh SH061996 -17.8000 37.5000 75 1 -17.5000 37.6000 3 50 980 4.00000 4.00000 -17.8000 37.5000 TC 75 8 257
1996001S08075 1996 1 SI MM BONITA 1996-01-13 21:00:00 TS -17.8017 37.0833 main 0 0 P____P______P_ SH061996 -17.8924 37.0999 72 1 -17.6203 37.0502 3 -17.8924 37.0999 TC 72 9 255
1996001S08075 1996 1 SI MM BONITA 1996-01-14 00:00:00 TS -17.9333 36.6333 reunion main 0 0 O____O______O_ jtwc_sh SH061996 -18.0000 36.7000 70 1 -17.8000 36.5000 8 9.90000 -18.0000 36.7000 TC 70 9 251
1996001S08075 1996 1 SI MM BONITA 1996-01-14 03:00:00 TS -18.0875 36.1951 main 0 0 P____P______P_ SH061996 -18.1426 36.2626 67 1 -17.9774 36.0601 8 -18.1426 36.2626 TC 67 8 245
1996001S08075 1996 1 SI MM BONITA 1996-01-14 06:00:00 TS -18.2667 35.8667 reunion main 0 0 O____O______O_ jtwc_sh SH061996 -18.3000 35.9000 65 1 -18.2000 35.8000 8 9.90000 -18.3000 35.9000 TC 65 6 228
1996001S08075 1996 1 SI MM BONITA 1996-01-14 09:00:00 TS -18.4715 35.7506 main 0 0 P____P______P_ SH061996 -18.4498 35.7124 60 0 -18.5149 35.8271 8 -18.4498 35.7124 TC 60 4 201
1996001S08075 1996 1 SI MM BONITA 1996-01-14 12:00:00 TS -18.6667 35.7000 reunion main 0 0 O____O______O_ jtwc_sh SH061996 -18.6000 35.6000 55 0 -18.8000 35.9000 8 9.90000 -18.6000 35.6000 TC 55 4 208
1996001S08075 1996 1 SI MM BONITA 1996-01-14 15:00:00 TS -18.8200 35.5608 main 0 0 P____P______P_ SH061996 -18.7574 35.4650 50 0 -18.9450 35.7526 8 -18.7574 35.4650 TC 50 4 230
1996001S08075 1996 1 SI MM BONITA 1996-01-14 18:00:00 TS -18.9333 35.3667 reunion main 0 0 O____O______O_ jtwc_sh SH061996 -18.9000 35.3000 45 0 -19.0000 35.5000 8 9.90000 -18.9000 35.3000 TC 45 5 246
1996001S08075 1996 1 SI MM BONITA 1996-01-14 21:00:00 TS -19.0075 35.1199 main 0 0 P____P______P_ SH061996 -19.0075 35.0650 42 0 -19.0074 35.2299 8 -19.0075 35.0650 TC 42 5 255
1996001S08075 1996 1 SI MM BONITA 1996-01-15 00:00:00 TS -19.0667 34.8333 reunion main 0 0 O____O______O_ jtwc_sh SH061996 -19.1000 34.8000 40 0 -19.0000 34.9000 8 9.90000 -19.1000 34.8000 TC 40 6 256
1996001S08075 1996 1 SI MM BONITA 1996-01-15 03:00:00 TS -19.1434 34.5351 main 0 0 P____P______P_ SH061996 -19.1975 34.5451 32 -1 -19.0352 34.5151 8 -19.1975 34.5451 TC 32 6 254
1996001S08075 1996 1 SI MM BONITA 1996-01-15 06:00:00 TS -19.2333 34.2333 reunion main 0 O____O______O_ jtwc_sh SH061996 -19.3000 34.3000 25 -1 -19.1000 34.1000 8 9.90000 -19.3000 34.3000 TC 25 6 252

IBTrACS Databaseについて

本データベースは、米国NOAAが公開する1842年以降の世界の熱帯低気圧のベストトラックデータアーカイブInternational Best Track Archive for Climate Stewardship (IBTrACS)を、ウェブで閲覧しやすい形式に変換したものです。

最終更新日:2021-10-25